createdAt,value
2023-02-27T00:00:15.232Z,88.10
2023-02-27T00:02:48.373Z,88.40
2023-02-27T00:05:15.692Z,88.60
2023-02-27T00:07:42.704Z,88.60
2023-02-27T00:10:11.233Z,89.00
2023-02-27T00:12:38.966Z,89.20
2023-02-27T00:15:08.704Z,89.60
2023-02-27T00:17:35.617Z,89.80
2023-02-27T00:20:04.929Z,90.00
2023-02-27T00:22:31.798Z,90.10
2023-02-27T00:24:58.630Z,90.10
2023-02-27T00:27:25.656Z,90.30
2023-02-27T00:29:52.524Z,90.40
2023-02-27T00:32:19.418Z,90.40
2023-02-27T00:34:47.369Z,90.50
2023-02-27T00:37:14.331Z,90.60
2023-02-27T00:39:41.239Z,90.60
2023-02-27T00:42:08.275Z,90.70
2023-02-27T00:44:35.197Z,90.80
2023-02-27T00:47:02.022Z,91.00
2023-02-27T00:49:28.958Z,91.00
2023-02-27T00:51:55.746Z,91.00
2023-02-27T00:54:24.162Z,91.00
2023-02-27T00:56:51.177Z,91.00
2023-02-27T00:59:18.138Z,91.10
2023-02-27T01:01:45.434Z,91.10
2023-02-27T01:04:12.454Z,91.20
2023-02-27T01:06:39.305Z,91.30
2023-02-27T01:09:06.430Z,91.30
2023-02-27T01:11:33.701Z,91.30
2023-02-27T01:14:00.793Z,91.30
2023-02-27T01:16:27.617Z,91.20
2023-02-27T01:18:54.826Z,91.20
2023-02-27T01:21:23.544Z,91.10
2023-02-27T01:23:50.714Z,91.10
2023-02-27T01:26:19.834Z,91.10
2023-02-27T01:28:46.713Z,91.20
2023-02-27T01:31:13.981Z,91.30
2023-02-27T01:33:40.908Z,91.30
2023-02-27T01:36:08.093Z,91.40
2023-02-27T01:38:35.059Z,91.50
2023-02-27T01:41:02.822Z,91.60
2023-02-27T01:43:32.701Z,91.70
2023-02-27T01:46:00.923Z,91.60
2023-02-27T01:48:28.058Z,91.60
2023-02-27T01:51:00.795Z,91.70
2023-02-27T01:53:30.294Z,91.90
2023-02-27T01:56:02.419Z,92.00
2023-02-27T01:58:30.337Z,92.10
2023-02-27T02:00:57.384Z,92.00
2023-02-27T02:03:35.768Z,92.20
2023-02-27T02:06:05.996Z,92.40
2023-02-27T02:08:42.101Z,92.70
2023-02-27T02:11:10.763Z,92.80
2023-02-27T02:13:39.981Z,92.90
2023-02-27T02:16:15.941Z,92.80
2023-02-27T02:19:09.405Z,92.70
2023-02-27T02:21:57.624Z,92.60
2023-02-27T02:24:55.321Z,92.70
2023-02-27T02:27:22.160Z,92.70
2023-02-27T02:30:12.680Z,92.70
2023-02-27T02:33:23.549Z,92.70
2023-02-27T02:36:28.256Z,92.70
2023-02-27T02:39:10.308Z,92.90
2023-02-27T02:42:08.989Z,93.10
2023-02-27T02:44:53.478Z,93.30
2023-02-27T02:47:34.393Z,93.50
2023-02-27T02:50:35.269Z,93.50
2023-02-27T02:53:36.725Z,93.60
2023-02-27T02:56:53.872Z,93.60
2023-02-27T02:59:37.223Z,94.10
2023-02-27T03:02:15.398Z,93.80
2023-02-27T03:05:02.410Z,93.90
2023-02-27T03:07:52.564Z,94.00
2023-02-27T03:10:43.560Z,94.20
2023-02-27T03:13:29.497Z,94.40
2023-02-27T03:16:02.806Z,95.00
2023-02-27T03:18:35.686Z,94.60
2023-02-27T03:21:09.397Z,94.70
2023-02-27T03:23:57.853Z,94.60
2023-02-27T03:26:37.943Z,94.80
2023-02-27T03:29:15.175Z,94.90
2023-02-27T03:31:47.003Z,94.90
2023-02-27T03:34:37.160Z,94.80
2023-02-27T03:37:38.004Z,95.60
2023-02-27T03:40:38.949Z,95.10
2023-02-27T03:43:36.425Z,95.10
2023-02-27T03:46:06.835Z,95.00
2023-02-27T03:48:34.177Z,94.90
2023-02-27T03:51:01.288Z,94.90
2023-02-27T03:53:40.670Z,95.00
2023-02-27T03:56:08.997Z,95.00
2023-02-27T03:58:36.911Z,95.00
2023-02-27T04:01:04.537Z,94.90
2023-02-27T04:03:35.591Z,94.90
2023-02-27T04:06:22.838Z,95.10
2023-02-27T04:08:58.605Z,95.50
2023-02-27T04:11:33.280Z,95.70
2023-02-27T04:14:46.383Z,96.00
2023-02-27T04:17:25.500Z,96.20
2023-02-27T04:19:58.305Z,96.40
2023-02-27T04:22:27.962Z,96.50
2023-02-27T04:25:13.100Z,96.60
2023-02-27T04:28:00.766Z,96.50
2023-02-27T04:31:01.323Z,96.40
2023-02-27T04:34:00.796Z,96.40
2023-02-27T04:36:32.664Z,96.80
2023-02-27T04:39:05.720Z,96.50
2023-02-27T04:41:54.698Z,96.70
2023-02-27T04:44:25.145Z,97.00
2023-02-27T04:46:54.972Z,97.20
2023-02-27T04:49:59.996Z,97.30
2023-02-27T04:52:40.801Z,97.40
2023-02-27T04:55:33.377Z,97.90
2023-02-27T04:58:13.984Z,97.50
2023-02-27T05:00:46.245Z,97.70
2023-02-27T05:03:24.361Z,97.80
2023-02-27T05:05:57.698Z,97.90
2023-02-27T05:08:35.707Z,97.90
2023-02-27T05:11:17.404Z,98.00
2023-02-27T05:13:53.431Z,98.00
2023-02-27T05:16:27.156Z,97.90
2023-02-27T05:18:55.177Z,97.90
2023-02-27T05:21:30.574Z,97.90
2023-02-27T05:24:30.475Z,98.00
2023-02-27T05:27:12.132Z,97.90
2023-02-27T05:29:49.407Z,97.80
2023-02-27T05:32:40.091Z,97.90
2023-02-27T05:35:29.254Z,98.00
2023-02-27T05:38:05.235Z,98.30
2023-02-27T05:40:41.860Z,98.60
2023-02-27T05:43:21.391Z,98.60
2023-02-27T05:45:54.502Z,98.50
2023-02-27T05:48:25.793Z,98.20
2023-02-27T05:50:53.716Z,98.30
2023-02-27T05:53:23.419Z,98.30
2023-02-27T05:55:53.336Z,98.50
2023-02-27T05:58:49.016Z,98.50
2023-02-27T06:01:15.983Z,98.50
2023-02-27T06:03:43.714Z,98.60
2023-02-27T06:06:19.357Z,98.70
2023-02-27T06:08:46.901Z,98.80
2023-02-27T06:11:13.708Z,98.80
2023-02-27T06:13:42.079Z,98.80
2023-02-27T06:16:12.590Z,98.70
2023-02-27T06:18:39.699Z,98.70
2023-02-27T06:21:06.692Z,98.70
2023-02-27T06:23:33.598Z,98.80
2023-02-27T06:26:00.508Z,98.80
2023-02-27T06:28:27.713Z,98.60
2023-02-27T06:30:57.111Z,98.60
2023-02-27T06:33:26.980Z,98.60
2023-02-27T06:35:53.836Z,98.60
2023-02-27T06:38:20.976Z,98.60
2023-02-27T06:40:47.774Z,98.70
2023-02-27T06:43:14.978Z,98.70
2023-02-27T06:45:41.783Z,98.70
2023-02-27T06:48:08.884Z,98.70
2023-02-27T06:50:35.829Z,98.70
2023-02-27T06:53:03.098Z,98.60
2023-02-27T06:55:30.091Z,98.50
2023-02-27T06:57:56.955Z,98.40
2023-02-27T07:00:24.070Z,98.30
2023-02-27T07:02:50.828Z,98.20
2023-02-27T07:05:18.135Z,98.10
2023-02-27T07:07:45.156Z,97.90
2023-02-27T07:10:13.600Z,97.80
2023-02-27T07:12:40.896Z,97.80
2023-02-27T07:15:08.708Z,97.70
2023-02-27T07:17:35.992Z,97.70
2023-02-27T07:20:02.944Z,97.80
2023-02-27T07:22:30.092Z,98.10
2023-02-27T07:24:56.884Z,98.50
2023-02-27T07:27:23.689Z,98.60
2023-02-27T07:29:50.566Z,98.80
2023-02-27T07:32:17.369Z,99.00
2023-02-27T07:34:44.224Z,99.20
2023-02-27T07:37:11.017Z,99.30
2023-02-27T07:39:37.822Z,99.40
2023-02-27T07:42:05.153Z,99.60
2023-02-27T07:44:33.584Z,99.70
2023-02-27T07:47:00.441Z,99.70
2023-02-27T07:49:27.383Z,99.70
2023-02-27T07:51:54.148Z,99.80
2023-02-27T07:54:21.042Z,99.80
2023-02-27T07:56:47.924Z,99.90
2023-02-27T07:59:14.713Z,99.90
2023-02-27T08:01:41.573Z,99.90
2023-02-27T08:04:08.600Z,99.90
2023-02-27T08:06:35.346Z,99.90
2023-02-27T08:09:02.114Z,99.80
2023-02-27T08:11:29.542Z,99.90
2023-02-27T08:14:00.564Z,99.60
2023-02-27T08:16:28.648Z,99.50
2023-02-27T08:18:56.370Z,98.60
2023-02-27T08:21:23.754Z,97.90
2023-02-27T08:23:50.558Z,97.60
2023-02-27T08:26:17.485Z,97.30
2023-02-27T08:28:44.472Z,97.30
2023-02-27T08:31:11.332Z,96.60
2023-02-27T08:33:38.175Z,96.40
2023-02-27T08:36:05.757Z,96.60
2023-02-27T08:38:32.596Z,96.80
2023-02-27T08:40:59.522Z,96.90
2023-02-27T08:43:26.296Z,96.60
2023-02-27T08:45:53.173Z,96.20
2023-02-27T08:48:20.063Z,96.20
2023-02-27T08:50:47.571Z,96.10
2023-02-27T08:53:14.825Z,96.20
2023-02-27T08:55:42.530Z,96.60
2023-02-27T08:58:10.078Z,97.10
2023-02-27T09:00:36.929Z,97.20
2023-02-27T09:03:03.876Z,97.30
2023-02-27T09:05:33.922Z,98.10
2023-02-27T09:08:01.500Z,98.40
2023-02-27T09:10:28.338Z,98.60
2023-02-27T09:12:55.107Z,98.20
2023-02-27T09:15:21.992Z,98.00
2023-02-27T09:17:48.790Z,97.80
2023-02-27T09:20:15.949Z,97.80
2023-02-27T09:22:42.753Z,97.50
2023-02-27T09:25:09.818Z,97.50
2023-02-27T09:27:36.588Z,97.20
2023-02-27T09:30:03.792Z,96.80
2023-02-27T09:32:30.936Z,96.60
2023-02-27T09:34:58.296Z,96.20
2023-02-27T09:37:25.100Z,96.20
2023-02-27T09:39:52.015Z,96.00
2023-02-27T09:42:19.665Z,95.80
2023-02-27T09:44:55.577Z,95.50
2023-02-27T09:47:34.765Z,95.30
2023-02-27T09:50:28.536Z,94.80
2023-02-27T09:52:55.391Z,94.30
2023-02-27T09:55:23.297Z,94.30
2023-02-27T09:58:19.190Z,94.40
2023-02-27T10:00:57.116Z,94.50
2023-02-27T10:04:11.077Z,94.40
2023-02-27T10:07:11.564Z,94.20
2023-02-27T10:10:00.180Z,93.90
2023-02-27T10:12:47.816Z,93.50
2023-02-27T10:15:43.328Z,92.80
2023-02-27T10:18:25.443Z,92.50
2023-02-27T10:21:11.703Z,92.50
2023-02-27T10:23:44.706Z,92.70
2023-02-27T10:26:20.204Z,92.80
2023-02-27T10:28:47.373Z,92.90
2023-02-27T10:31:28.966Z,92.70
2023-02-27T10:33:57.468Z,92.30
2023-02-27T10:36:33.564Z,92.00
2023-02-27T10:39:16.760Z,91.80
2023-02-27T10:41:45.855Z,90.80
2023-02-27T10:44:16.292Z,90.50
2023-02-27T10:46:43.317Z,90.20
2023-02-27T10:49:15.327Z,89.80
2023-02-27T10:51:44.550Z,89.40
2023-02-27T10:54:26.135Z,89.20
2023-02-27T10:56:56.767Z,88.70
2023-02-27T10:59:28.279Z,88.50
2023-02-27T11:01:58.355Z,88.30
2023-02-27T11:04:40.270Z,87.90
2023-02-27T11:07:11.761Z,87.90
2023-02-27T11:09:39.067Z,87.30
2023-02-27T11:12:26.645Z,87.00
2023-02-27T11:15:14.728Z,86.90
2023-02-27T11:17:43.119Z,86.40
2023-02-27T11:20:30.148Z,86.10
2023-02-27T11:23:05.790Z,85.90
2023-02-27T11:25:33.572Z,85.60
2023-02-27T11:28:30.249Z,85.20
2023-02-27T11:31:06.944Z,85.40
2023-02-27T11:33:40.307Z,84.80
2023-02-27T11:36:07.834Z,84.80
2023-02-27T11:38:35.039Z,84.40
2023-02-27T11:41:05.500Z,83.60
2023-02-27T11:43:42.576Z,82.20
2023-02-27T11:46:46.369Z,80.80
2023-02-27T11:49:26.750Z,80.30
2023-02-27T11:52:04.113Z,81.20
2023-02-27T11:54:54.053Z,82.20
2023-02-27T11:57:36.448Z,82.60
2023-02-27T12:00:33.046Z,81.40
2023-02-27T12:03:07.252Z,80.30
2023-02-27T12:05:45.860Z,79.60
2023-02-27T12:08:20.930Z,79.40
2023-02-27T12:11:14.828Z,79.70
2023-02-27T12:13:47.293Z,79.40
2023-02-27T12:16:27.300Z,79.20
2023-02-27T12:19:18.326Z,77.60
2023-02-27T12:21:56.571Z,77.10
2023-02-27T12:24:35.558Z,77.10
2023-02-27T12:27:25.681Z,77.30
2023-02-27T12:30:02.681Z,76.30
2023-02-27T12:32:43.068Z,74.80
2023-02-27T12:35:30.331Z,74.00
2023-02-27T12:37:58.275Z,74.30
2023-02-27T12:40:38.762Z,74.10
2023-02-27T12:43:19.231Z,73.10
2023-02-27T12:45:59.542Z,71.10
2023-02-27T12:49:00.538Z,70.10
2023-02-27T12:51:49.906Z,69.60
2023-02-27T12:54:53.679Z,69.40
2023-02-27T12:57:49.620Z,69.00
2023-02-27T13:00:20.180Z,69.90
2023-02-27T13:02:53.597Z,68.40
2023-02-27T13:05:38.470Z,67.90
2023-02-27T13:08:11.579Z,67.70
2023-02-27T13:11:21.725Z,67.90
2023-02-27T13:13:50.213Z,68.40
2023-02-27T13:16:26.177Z,69.00
2023-02-27T13:19:15.752Z,68.80
2023-02-27T13:22:01.992Z,68.50
2023-02-27T13:24:31.176Z,68.20
2023-02-27T13:26:57.873Z,67.60
2023-02-27T13:29:41.015Z,65.90
2023-02-27T13:32:32.696Z,65.30
2023-02-27T13:35:21.400Z,64.50
2023-02-27T13:38:05.360Z,64.80
2023-02-27T13:40:41.571Z,64.50
2023-02-27T13:43:51.070Z,64.20
2023-02-27T13:46:23.452Z,64.30
2023-02-27T13:48:53.630Z,65.10
2023-02-27T13:51:35.756Z,65.70
2023-02-27T13:54:17.377Z,65.20
2023-02-27T13:56:51.159Z,64.90
2023-02-27T13:59:29.958Z,64.70
2023-02-27T14:02:18.358Z,64.60
2023-02-27T14:04:51.300Z,64.50
2023-02-27T14:07:24.181Z,63.60
2023-02-27T14:10:00.028Z,63.10
2023-02-27T14:12:45.564Z,62.40
2023-02-27T14:15:22.373Z,61.80
2023-02-27T14:17:54.442Z,61.60
2023-02-27T14:20:30.753Z,61.70
2023-02-27T14:23:15.859Z,61.70
2023-02-27T14:25:55.202Z,61.60
2023-02-27T14:28:47.719Z,61.70
2023-02-27T14:31:32.224Z,62.00
2023-02-27T14:34:05.587Z,62.60
2023-02-27T14:36:42.587Z,63.20
2023-02-27T14:39:23.305Z,63.50
2023-02-27T14:42:19.407Z,63.50
2023-02-27T14:44:48.143Z,63.90
2023-02-27T14:47:18.241Z,64.10
2023-02-27T14:49:47.308Z,64.30
2023-02-27T14:52:21.686Z,64.50
2023-02-27T14:54:52.390Z,64.50
2023-02-27T14:57:23.745Z,64.80
2023-02-27T14:59:54.886Z,64.90
2023-02-27T15:02:21.900Z,65.30
2023-02-27T15:04:54.441Z,65.70
2023-02-27T15:07:24.730Z,65.60
2023-02-27T15:09:56.458Z,65.60
2023-02-27T15:12:24.582Z,65.90
2023-02-27T15:14:55.120Z,65.90
2023-02-27T15:17:25.130Z,66.10
2023-02-27T15:19:55.147Z,65.90
2023-02-27T15:22:37.909Z,65.50
2023-02-27T15:25:07.704Z,65.00
2023-02-27T15:27:37.606Z,64.80
2023-02-27T15:30:05.759Z,64.80
2023-02-27T15:32:34.422Z,64.70
2023-02-27T15:35:10.845Z,64.70
2023-02-27T15:37:38.659Z,65.70
2023-02-27T15:40:11.108Z,64.70
2023-02-27T15:42:39.526Z,64.60
2023-02-27T15:45:07.571Z,64.20
2023-02-27T15:47:35.597Z,63.90
2023-02-27T15:50:31.354Z,63.50
2023-02-27T15:53:07.182Z,63.60
2023-02-27T15:55:37.403Z,63.70
2023-02-27T15:58:18.326Z,63.30
2023-02-27T16:00:45.686Z,63.10
2023-02-27T16:03:21.580Z,63.20
2023-02-27T16:05:52.498Z,63.30
2023-02-27T16:08:21.070Z,63.40
2023-02-27T16:10:48.802Z,63.40
2023-02-27T16:13:37.643Z,63.60
2023-02-27T16:16:07.159Z,63.60
2023-02-27T16:18:36.421Z,63.60
2023-02-27T16:21:33.599Z,63.60
2023-02-27T16:24:30.656Z,63.10
2023-02-27T16:26:57.744Z,62.90
2023-02-27T16:29:36.929Z,62.90
2023-02-27T16:32:04.285Z,63.10
2023-02-27T16:34:45.519Z,63.20
2023-02-27T16:37:27.093Z,63.60
2023-02-27T16:39:54.413Z,63.60
2023-02-27T16:42:21.680Z,63.90
2023-02-27T16:44:48.614Z,64.40
2023-02-27T16:47:15.392Z,64.80
2023-02-27T16:49:44.288Z,65.20
2023-02-27T16:52:11.931Z,65.50
2023-02-27T16:54:38.909Z,65.70
2023-02-27T16:57:05.881Z,65.80
2023-02-27T16:59:39.778Z,66.10
2023-02-27T17:02:11.716Z,66.40
2023-02-27T17:04:38.626Z,66.80
2023-02-27T17:07:06.941Z,67.20
2023-02-27T17:09:35.049Z,67.60
2023-02-27T17:12:01.899Z,67.90
2023-02-27T17:14:28.929Z,68.30
2023-02-27T17:16:55.867Z,68.70
2023-02-27T17:19:23.859Z,69.00
2023-02-27T17:21:51.734Z,69.20
2023-02-27T17:24:18.799Z,69.60
2023-02-27T17:26:45.802Z,70.00
2023-02-27T17:29:14.907Z,70.10
2023-02-27T17:31:42.070Z,70.50
2023-02-27T17:34:09.007Z,70.80
2023-02-27T17:36:36.257Z,70.40
2023-02-27T17:39:04.552Z,69.80
2023-02-27T17:41:32.264Z,69.50
2023-02-27T17:44:01.675Z,69.10
2023-02-27T17:46:30.977Z,69.10
2023-02-27T17:49:01.241Z,68.90
2023-02-27T17:51:29.303Z,69.10
2023-02-27T17:53:57.381Z,69.10
2023-02-27T17:56:24.295Z,69.40
2023-02-27T17:58:51.358Z,69.40
2023-02-27T18:01:22.949Z,69.50
2023-02-27T18:03:50.331Z,69.80
2023-02-27T18:06:18.242Z,70.00
2023-02-27T18:08:45.610Z,70.10
2023-02-27T18:11:15.360Z,70.50
2023-02-27T18:13:42.838Z,70.80
2023-02-27T18:16:11.005Z,71.00
2023-02-27T18:18:40.443Z,71.10
2023-02-27T18:21:10.584Z,71.40
2023-02-27T18:23:38.039Z,71.40
2023-02-27T18:26:05.656Z,72.90
2023-02-27T18:28:32.722Z,72.20
2023-02-27T18:30:59.650Z,73.60
2023-02-27T18:33:27.386Z,73.00
2023-02-27T18:35:54.326Z,73.10
2023-02-27T18:38:21.223Z,73.50
2023-02-27T18:40:48.025Z,73.90
2023-02-27T18:43:15.097Z,74.30
2023-02-27T18:45:42.180Z,74.70
2023-02-27T18:48:09.184Z,74.90
2023-02-27T18:50:36.583Z,75.00
2023-02-27T18:53:03.452Z,75.40
2023-02-27T18:55:30.400Z,75.70
2023-02-27T18:57:57.329Z,75.90
2023-02-27T19:00:24.279Z,76.10
2023-02-27T19:02:51.653Z,76.30
2023-02-27T19:05:18.686Z,76.50
2023-02-27T19:07:45.913Z,76.70
2023-02-27T19:10:13.176Z,76.90
2023-02-27T19:12:40.959Z,77.10
2023-02-27T19:15:08.474Z,77.40
2023-02-27T19:17:36.188Z,77.70
2023-02-27T19:20:03.688Z,78.10
2023-02-27T19:22:30.833Z,78.40
2023-02-27T19:24:58.253Z,78.60
2023-02-27T19:27:25.109Z,78.90
2023-02-27T19:29:51.946Z,79.00
2023-02-27T19:32:18.939Z,79.00
2023-02-27T19:34:45.826Z,78.90
2023-02-27T19:37:12.758Z,78.70
2023-02-27T19:39:39.644Z,78.80
2023-02-27T19:42:06.508Z,78.90
2023-02-27T19:44:33.258Z,78.90
2023-02-27T19:47:00.308Z,78.90
2023-02-27T19:49:27.179Z,79.10
2023-02-27T19:51:53.981Z,79.30
2023-02-27T19:54:20.782Z,79.50
2023-02-27T19:56:47.788Z,79.50
2023-02-27T19:59:14.589Z,79.60
2023-02-27T20:01:44.452Z,79.60
2023-02-27T20:04:11.739Z,79.70
2023-02-27T20:06:44.425Z,79.50
2023-02-27T20:09:14.429Z,79.40
2023-02-27T20:11:45.468Z,79.50
2023-02-27T20:14:13.950Z,79.50
2023-02-27T20:16:41.269Z,79.40
2023-02-27T20:19:12.827Z,79.70
2023-02-27T20:21:39.910Z,79.60
2023-02-27T20:24:06.877Z,79.40
2023-02-27T20:26:37.236Z,79.00
2023-02-27T20:29:08.166Z,79.00
2023-02-27T20:31:36.993Z,78.90
2023-02-27T20:34:06.096Z,79.00
2023-02-27T20:36:36.993Z,79.10
2023-02-27T20:39:04.227Z,79.10
2023-02-27T20:41:32.944Z,79.00
2023-02-27T20:44:00.917Z,79.00
2023-02-27T20:46:29.100Z,78.90
2023-02-27T20:49:00.598Z,78.90
2023-02-27T20:51:35.776Z,78.90
2023-02-27T20:54:11.748Z,78.30
2023-02-27T20:56:41.587Z,77.60
2023-02-27T20:59:13.057Z,77.10
2023-02-27T21:01:40.785Z,76.80
2023-02-27T21:04:07.758Z,77.80
2023-02-27T21:06:34.927Z,76.30
2023-02-27T21:09:05.155Z,76.20
2023-02-27T21:11:33.481Z,76.00
2023-02-27T21:14:05.021Z,76.00
2023-02-27T21:16:32.206Z,76.90
2023-02-27T21:18:59.114Z,75.40
2023-02-27T21:21:29.161Z,75.30
2023-02-27T21:23:56.334Z,74.90
2023-02-27T21:26:26.590Z,74.50
2023-02-27T21:28:59.712Z,74.50
2023-02-27T21:31:29.700Z,74.50
2023-02-27T21:33:59.291Z,74.50
2023-02-27T21:36:28.742Z,74.60
2023-02-27T21:39:00.420Z,74.60
2023-02-27T21:41:28.577Z,74.50
2023-02-27T21:44:03.062Z,74.50
2023-02-27T21:46:30.902Z,74.50
2023-02-27T21:48:58.063Z,74.50
2023-02-27T21:51:39.484Z,74.50
2023-02-27T21:54:10.996Z,74.40
2023-02-27T21:56:38.792Z,74.50
2023-02-27T21:59:05.758Z,74.50
2023-02-27T22:01:33.405Z,74.50
2023-02-27T22:04:01.538Z,74.40
2023-02-27T22:06:31.358Z,74.00
2023-02-27T22:09:01.402Z,73.60
2023-02-27T22:11:29.569Z,73.50
2023-02-27T22:13:56.820Z,73.40
2023-02-27T22:16:23.714Z,73.30
2023-02-27T22:18:51.530Z,73.10
2023-02-27T22:21:21.543Z,73.20
2023-02-27T22:23:48.903Z,73.20
2023-02-27T22:26:23.914Z,73.10
2023-02-27T22:29:01.956Z,73.10
2023-02-27T22:31:32.109Z,73.10
2023-02-27T22:34:02.587Z,73.10
2023-02-27T22:36:31.748Z,73.20
2023-02-27T22:38:59.742Z,73.10
2023-02-27T22:41:32.705Z,72.90
2023-02-27T22:44:01.570Z,73.00
2023-02-27T22:46:37.938Z,73.00
2023-02-27T22:49:12.301Z,73.20
2023-02-27T22:51:39.291Z,74.50
2023-02-27T22:54:06.955Z,73.40
2023-02-27T22:56:36.341Z,73.40
2023-02-27T22:59:04.611Z,73.40
2023-02-27T23:01:33.851Z,73.50
2023-02-27T23:04:05.972Z,73.50
2023-02-27T23:06:36.756Z,73.60
2023-02-27T23:09:05.758Z,74.40
2023-02-27T23:11:32.674Z,74.10
2023-02-27T23:13:59.780Z,74.10
2023-02-27T23:16:27.068Z,74.10
2023-02-27T23:18:56.843Z,74.20
2023-02-27T23:21:34.269Z,74.50
2023-02-27T23:24:06.221Z,74.60
2023-02-27T23:26:36.452Z,75.00
2023-02-27T23:29:03.783Z,75.50
2023-02-27T23:31:33.436Z,75.60
2023-02-27T23:34:02.290Z,75.80
2023-02-27T23:36:29.094Z,76.00
2023-02-27T23:38:57.697Z,76.10
2023-02-27T23:41:25.927Z,76.30
2023-02-27T23:44:11.625Z,76.40
2023-02-27T23:46:38.922Z,76.50
2023-02-27T23:49:05.686Z,76.70
2023-02-27T23:51:33.389Z,77.90
2023-02-27T23:54:00.432Z,76.70
2023-02-27T23:56:29.424Z,76.70
2023-02-27T23:58:59.424Z,76.70
